createdAt,value
2023-01-12T00:02:19.064Z,10.68
2023-01-12T00:04:45.734Z,10.66
2023-01-12T00:07:13.162Z,10.70
2023-01-12T00:09:40.879Z,10.66
2023-01-12T00:12:09.463Z,10.63
2023-01-12T00:14:36.399Z,10.57
2023-01-12T00:17:03.162Z,10.50
2023-01-12T00:19:31.341Z,10.49
2023-01-12T00:21:59.195Z,10.44
2023-01-12T00:24:29.609Z,10.37
2023-01-12T00:26:57.157Z,10.31
2023-01-12T00:29:23.983Z,10.26
2023-01-12T00:31:50.593Z,10.16
2023-01-12T00:34:17.602Z,10.10
2023-01-12T00:36:44.952Z,10.04
2023-01-12T00:39:11.490Z,10.00
2023-01-12T00:41:38.633Z,9.98
2023-01-12T00:44:05.676Z,9.96
2023-01-12T00:46:32.690Z,9.92
2023-01-12T00:48:59.356Z,9.91
2023-01-12T00:51:25.981Z,9.84
2023-01-12T00:53:52.539Z,9.86
2023-01-12T00:56:19.120Z,9.75
2023-01-12T00:58:45.701Z,9.77
2023-01-12T01:01:12.364Z,9.59
2023-01-12T01:03:38.928Z,9.66
2023-01-12T01:06:06.288Z,9.54
2023-01-12T01:08:32.926Z,9.58
2023-01-12T01:11:10.705Z,9.52
2023-01-12T01:13:37.524Z,9.50
2023-01-12T01:16:04.653Z,9.52
2023-01-12T01:18:32.041Z,9.46
2023-01-12T01:20:58.701Z,9.60
2023-01-12T01:23:25.779Z,9.67
2023-01-12T01:25:52.727Z,9.66
2023-01-12T01:28:19.516Z,9.74
2023-01-12T01:30:46.380Z,9.66
2023-01-12T01:33:13.525Z,9.63
2023-01-12T01:35:40.104Z,9.66
2023-01-12T01:38:06.911Z,9.70
2023-01-12T01:40:33.479Z,9.72
2023-01-12T01:43:00.119Z,9.69
2023-01-12T01:45:26.757Z,9.63
2023-01-12T01:47:55.624Z,9.73
2023-01-12T01:50:26.418Z,9.90
2023-01-12T01:52:57.569Z,9.73
2023-01-12T01:55:26.636Z,9.92
2023-01-12T01:58:02.754Z,9.88
2023-01-12T02:00:29.767Z,10.01
2023-01-12T02:02:56.507Z,10.02
2023-01-12T02:05:24.767Z,10.10
2023-01-12T02:07:51.356Z,10.14
2023-01-12T02:10:18.437Z,10.16
2023-01-12T02:12:45.136Z,9.98
2023-01-12T02:15:11.738Z,10.17
2023-01-12T02:17:53.092Z,10.35
2023-01-12T02:20:57.308Z,10.42
2023-01-12T02:23:26.550Z,10.50
2023-01-12T02:26:04.966Z,10.55
2023-01-12T02:28:53.256Z,10.51
2023-01-12T02:32:21.426Z,10.58
2023-01-12T02:35:10.965Z,10.51
2023-01-12T02:37:48.498Z,10.55
2023-01-12T02:40:14.968Z,10.52
2023-01-12T02:42:43.761Z,10.55
2023-01-12T02:45:24.346Z,10.54
2023-01-12T02:48:28.609Z,10.57
2023-01-12T02:51:05.772Z,10.55
2023-01-12T02:53:37.542Z,10.57
2023-01-12T02:56:05.118Z,10.37
2023-01-12T02:58:32.867Z,10.51
2023-01-12T03:00:59.717Z,10.44
2023-01-12T03:03:26.412Z,10.41
2023-01-12T03:05:55.969Z,10.33
2023-01-12T03:08:22.518Z,10.18
2023-01-12T03:11:00.412Z,10.28
2023-01-12T03:13:27.604Z,10.14
2023-01-12T03:15:55.380Z,10.10
2023-01-12T03:18:29.547Z,10.14
2023-01-12T03:20:59.998Z,10.05
2023-01-12T03:23:33.792Z,10.05
2023-01-12T03:26:00.537Z,10.07
2023-01-12T03:28:28.912Z,10.15
2023-01-12T03:30:56.941Z,10.10
2023-01-12T03:33:23.884Z,10.02
2023-01-12T03:36:04.600Z,10.21
2023-01-12T03:38:38.095Z,10.15
2023-01-12T03:41:11.370Z,10.17
2023-01-12T03:43:43.239Z,10.06
2023-01-12T03:46:18.460Z,10.09
2023-01-12T03:48:52.746Z,10.15
2023-01-12T03:51:46.620Z,10.07
2023-01-12T03:54:13.227Z,9.99
2023-01-12T03:56:40.103Z,10.07
2023-01-12T03:59:06.815Z,10.06
2023-01-12T04:01:33.685Z,9.92
2023-01-12T04:04:00.386Z,9.95
2023-01-12T04:06:27.057Z,9.78
2023-01-12T04:08:53.699Z,9.90
2023-01-12T04:11:20.348Z,9.91
2023-01-12T04:13:47.002Z,9.99
2023-01-12T04:16:13.686Z,9.99
2023-01-12T04:18:40.338Z,10.11
2023-01-12T04:21:06.966Z,10.17
2023-01-12T04:23:33.570Z,10.20
2023-01-12T04:26:00.225Z,10.23
2023-01-12T04:28:26.879Z,10.19
2023-01-12T04:30:53.487Z,10.17
2023-01-12T04:33:20.088Z,10.14
2023-01-12T04:35:47.060Z,10.13
2023-01-12T04:38:13.641Z,10.05
2023-01-12T04:40:40.303Z,10.06
2023-01-12T04:43:08.628Z,9.94
2023-01-12T04:45:39.709Z,9.96
2023-01-12T04:48:08.961Z,9.87
2023-01-12T04:50:35.616Z,9.81
2023-01-12T04:53:03.369Z,9.85
2023-01-12T04:55:30.028Z,9.73
2023-01-12T04:57:56.967Z,9.83
2023-01-12T05:00:23.704Z,9.79
2023-01-12T05:02:50.295Z,9.69
2023-01-12T05:05:16.921Z,9.57
2023-01-12T05:07:43.657Z,9.60
2023-01-12T05:10:10.927Z,9.41
2023-01-12T05:12:37.540Z,9.39
2023-01-12T05:15:04.532Z,9.37
2023-01-12T05:17:32.304Z,9.43
2023-01-12T05:20:00.802Z,9.54
2023-01-12T05:22:27.753Z,9.58
2023-01-12T05:24:54.356Z,9.67
2023-01-12T05:27:20.961Z,9.69
2023-01-12T05:29:47.595Z,9.74
2023-01-12T05:32:14.213Z,9.74
2023-01-12T05:34:40.874Z,9.75
2023-01-12T05:37:07.482Z,9.66
2023-01-12T05:39:34.127Z,9.68
2023-01-12T05:42:00.801Z,9.74
2023-01-12T05:44:27.475Z,9.54
2023-01-12T05:46:54.145Z,9.61
2023-01-12T05:49:20.796Z,9.64
2023-01-12T05:51:47.470Z,9.58
2023-01-12T05:54:14.077Z,9.52
2023-01-12T05:56:40.807Z,9.45
2023-01-12T05:59:07.414Z,9.50
2023-01-12T06:01:34.086Z,9.42
2023-01-12T06:04:01.001Z,9.36
2023-01-12T06:06:28.753Z,9.37
2023-01-12T06:08:55.393Z,9.46
2023-01-12T06:11:22.172Z,9.33
2023-01-12T06:13:48.808Z,9.28
2023-01-12T06:16:15.460Z,9.44
2023-01-12T06:18:42.118Z,9.28
2023-01-12T06:21:08.987Z,9.47
2023-01-12T06:23:36.029Z,9.49
2023-01-12T06:26:03.708Z,9.35
2023-01-12T06:28:30.360Z,9.30
2023-01-12T06:31:01.422Z,9.32
2023-01-12T06:33:28.191Z,9.36
2023-01-12T06:35:57.680Z,9.39
2023-01-12T06:38:25.351Z,9.41
2023-01-12T06:40:51.985Z,9.43
2023-01-12T06:43:18.671Z,9.37
2023-01-12T06:45:45.477Z,9.35
2023-01-12T06:48:12.187Z,9.22
2023-01-12T06:50:38.897Z,9.31
2023-01-12T06:53:05.681Z,9.19
2023-01-12T06:55:32.348Z,9.18
2023-01-12T06:58:02.860Z,8.96
2023-01-12T07:00:29.503Z,8.99
2023-01-12T07:02:56.140Z,9.07
2023-01-12T07:05:22.779Z,9.06
2023-01-12T07:07:49.445Z,9.07
2023-01-12T07:10:16.395Z,9.07
2023-01-12T07:12:43.031Z,9.09
2023-01-12T07:15:10.235Z,9.05
2023-01-12T07:17:36.841Z,9.04
2023-01-12T07:20:03.662Z,9.09
2023-01-12T07:22:30.288Z,9.09
2023-01-12T07:24:57.837Z,9.11
2023-01-12T07:27:24.619Z,9.08
2023-01-12T07:29:51.260Z,9.07
2023-01-12T07:32:17.885Z,9.07
2023-01-12T07:34:44.529Z,9.09
2023-01-12T07:37:11.217Z,9.06
2023-01-12T07:39:39.127Z,9.01
2023-01-12T07:42:05.784Z,9.08
2023-01-12T07:44:32.411Z,9.16
2023-01-12T07:46:58.993Z,9.17
2023-01-12T07:49:26.287Z,9.21
2023-01-12T07:51:53.816Z,9.25
2023-01-12T07:54:20.485Z,9.27
2023-01-12T07:56:47.162Z,9.26
2023-01-12T07:59:13.886Z,9.28
2023-01-12T08:01:40.644Z,9.37
2023-01-12T08:04:07.449Z,9.40
2023-01-12T08:06:34.476Z,9.43
2023-01-12T08:09:01.129Z,9.43
2023-01-12T08:11:27.790Z,9.46
2023-01-12T08:13:58.040Z,9.42
2023-01-12T08:16:30.279Z,9.31
2023-01-12T08:19:18.225Z,9.41
2023-01-12T08:21:47.191Z,9.50
2023-01-12T08:24:15.140Z,9.41
2023-01-12T08:26:42.397Z,9.58
2023-01-12T08:29:16.880Z,9.58
2023-01-12T08:31:43.531Z,9.79
2023-01-12T08:34:10.202Z,9.95
2023-01-12T08:36:36.831Z,9.85
2023-01-12T08:39:03.438Z,9.95
2023-01-12T08:41:30.885Z,10.11
2023-01-12T08:43:57.473Z,9.98
2023-01-12T08:46:24.082Z,9.99
2023-01-12T08:48:50.767Z,10.15
2023-01-12T08:51:17.392Z,10.20
2023-01-12T08:53:44.019Z,10.30
2023-01-12T08:56:10.629Z,10.24
2023-01-12T08:58:37.415Z,10.37
2023-01-12T09:01:08.276Z,10.25
2023-01-12T09:03:36.013Z,10.39
2023-01-12T09:06:18.413Z,10.36
2023-01-12T09:08:45.251Z,10.11
2023-01-12T09:11:12.407Z,10.19
2023-01-12T09:13:39.104Z,10.19
2023-01-12T09:16:12.583Z,9.98
2023-01-12T09:18:40.154Z,9.87
2023-01-12T09:21:08.312Z,10.00
2023-01-12T09:23:35.140Z,10.15
2023-01-12T09:26:06.048Z,10.11
2023-01-12T09:28:32.901Z,10.40
2023-01-12T09:31:07.340Z,10.35
2023-01-12T09:33:35.632Z,10.17
2023-01-12T09:36:02.250Z,10.22
2023-01-12T09:38:29.044Z,10.32
2023-01-12T09:41:02.163Z,10.55
2023-01-12T09:43:29.080Z,10.58
2023-01-12T09:45:55.719Z,10.71
2023-01-12T09:48:22.414Z,10.65
2023-01-12T09:51:04.474Z,10.79
2023-01-12T09:53:33.292Z,10.81
2023-01-12T09:56:16.963Z,10.77
2023-01-12T09:59:06.303Z,10.99
2023-01-12T10:01:32.968Z,11.19
2023-01-12T10:04:00.144Z,11.40
2023-01-12T10:06:26.769Z,11.44
2023-01-12T10:08:56.689Z,11.56
2023-01-12T10:11:43.693Z,11.71
2023-01-12T10:14:32.163Z,11.73
2023-01-12T10:17:17.278Z,11.84
2023-01-12T10:20:09.619Z,11.99
2023-01-12T10:22:45.123Z,12.09
2023-01-12T10:25:32.932Z,12.14
2023-01-12T10:27:59.889Z,12.14
2023-01-12T10:30:33.903Z,12.18
2023-01-12T10:33:20.762Z,12.28
2023-01-12T10:36:10.580Z,12.11
2023-01-12T10:38:52.748Z,12.13
2023-01-12T10:41:20.471Z,12.23
2023-01-12T10:44:05.863Z,12.28
2023-01-12T10:46:33.556Z,12.13
2023-01-12T10:49:18.844Z,11.81
2023-01-12T10:51:56.388Z,11.78
2023-01-12T10:54:43.222Z,11.92
2023-01-12T10:57:20.336Z,11.73
2023-01-12T10:59:58.007Z,11.56
2023-01-12T11:02:25.672Z,11.65
2023-01-12T11:04:53.096Z,11.76
2023-01-12T11:07:20.379Z,11.84
2023-01-12T11:09:47.299Z,11.89
2023-01-12T11:12:30.402Z,11.62
2023-01-12T11:15:00.786Z,11.30
2023-01-12T11:17:53.525Z,11.51
2023-01-12T11:20:37.062Z,11.73
2023-01-12T11:23:07.352Z,11.74
2023-01-12T11:25:36.204Z,11.64
2023-01-12T11:28:43.201Z,11.68
2023-01-12T11:31:17.198Z,11.70
2023-01-12T11:33:49.455Z,11.59
2023-01-12T11:36:18.646Z,11.56
2023-01-12T11:38:57.882Z,11.87
2023-01-12T11:41:33.472Z,11.95
2023-01-12T11:44:08.075Z,11.95
2023-01-12T11:46:38.819Z,12.09
2023-01-12T11:49:17.403Z,12.21
2023-01-12T11:51:44.196Z,12.30
2023-01-12T11:54:14.023Z,12.47
2023-01-12T11:57:12.454Z,12.58
2023-01-12T11:59:42.469Z,12.70
2023-01-12T12:02:27.368Z,12.63
2023-01-12T12:05:03.554Z,12.62
2023-01-12T12:07:54.347Z,12.67
2023-01-12T12:10:30.602Z,12.69
2023-01-12T12:13:18.849Z,12.70
2023-01-12T12:16:10.399Z,12.91
2023-01-12T12:18:55.411Z,13.08
2023-01-12T12:21:31.121Z,13.10
2023-01-12T12:24:35.738Z,13.04
2023-01-12T12:27:12.279Z,12.82
2023-01-12T12:30:06.754Z,12.95
2023-01-12T12:33:14.714Z,13.09
2023-01-12T12:35:41.555Z,13.21
2023-01-12T12:38:26.572Z,13.25
2023-01-12T12:41:01.934Z,13.28
2023-01-12T12:43:32.958Z,13.28
2023-01-12T12:46:09.551Z,13.28
2023-01-12T12:48:57.251Z,13.34
2023-01-12T12:51:23.884Z,13.46
2023-01-12T12:53:50.501Z,13.44
2023-01-12T12:56:18.735Z,13.42
2023-01-12T12:58:48.775Z,13.37
2023-01-12T13:01:21.611Z,13.33
2023-01-12T13:03:54.960Z,13.34
2023-01-12T13:06:24.619Z,13.26
2023-01-12T13:08:55.567Z,13.09
2023-01-12T13:11:49.000Z,13.14
2023-01-12T13:14:31.831Z,13.20
2023-01-12T13:17:02.128Z,13.22
2023-01-12T13:19:39.723Z,13.23
2023-01-12T13:22:27.826Z,13.18
2023-01-12T13:25:20.995Z,13.13
2023-01-12T13:27:56.518Z,13.21
2023-01-12T13:30:26.962Z,12.98
2023-01-12T13:32:53.587Z,12.76
2023-01-12T13:35:28.414Z,12.62
2023-01-12T13:38:00.613Z,12.48
2023-01-12T13:40:30.759Z,12.61
2023-01-12T13:42:58.492Z,12.59
2023-01-12T13:45:25.291Z,12.75
2023-01-12T13:47:51.911Z,12.81
2023-01-12T13:50:25.901Z,12.90
2023-01-12T13:52:56.772Z,12.82
2023-01-12T13:55:24.726Z,12.92
2023-01-12T13:57:59.136Z,12.89
2023-01-12T14:00:26.058Z,12.81
2023-01-12T14:02:52.806Z,12.80
2023-01-12T14:05:54.928Z,12.91
2023-01-12T14:08:39.653Z,12.97
2023-01-12T14:11:25.312Z,12.97
2023-01-12T14:13:58.576Z,12.89
2023-01-12T14:16:25.292Z,12.61
2023-01-12T14:18:51.950Z,12.67
2023-01-12T14:21:34.516Z,12.68
2023-01-12T14:24:23.352Z,12.72
2023-01-12T14:26:50.063Z,12.47
2023-01-12T14:29:16.740Z,12.46
2023-01-12T14:31:47.477Z,12.53
2023-01-12T14:34:31.189Z,12.62
2023-01-12T14:36:57.919Z,12.44
2023-01-12T14:39:26.535Z,12.52
2023-01-12T14:41:56.452Z,12.20
2023-01-12T14:44:24.512Z,12.11
2023-01-12T14:46:52.916Z,11.92
2023-01-12T14:49:27.081Z,11.83
2023-01-12T14:51:54.268Z,11.87
2023-01-12T14:54:27.490Z,11.73
2023-01-12T14:56:56.982Z,11.87
2023-01-12T14:59:24.590Z,11.97
2023-01-12T15:01:54.342Z,12.08
2023-01-12T15:04:22.734Z,12.14
2023-01-12T15:07:00.592Z,12.11
2023-01-12T15:09:29.491Z,12.16
2023-01-12T15:11:56.339Z,12.11
2023-01-12T15:14:25.109Z,12.07
2023-01-12T15:16:52.864Z,12.00
2023-01-12T15:19:19.516Z,12.00
2023-01-12T15:21:46.198Z,12.04
2023-01-12T15:24:28.759Z,12.04
2023-01-12T15:27:05.726Z,12.07
2023-01-12T15:29:32.891Z,12.07
2023-01-12T15:31:59.646Z,12.08
2023-01-12T15:34:26.768Z,12.03
2023-01-12T15:36:53.481Z,11.97
2023-01-12T15:39:20.166Z,11.96
2023-01-12T15:41:46.814Z,11.99
2023-01-12T15:44:13.768Z,12.01
2023-01-12T15:46:40.767Z,12.00
2023-01-12T15:49:07.551Z,12.01
2023-01-12T15:51:34.399Z,12.00
2023-01-12T15:54:01.071Z,11.92
2023-01-12T15:56:28.193Z,11.93
2023-01-12T15:58:54.865Z,11.87
2023-01-12T16:01:21.642Z,11.95
2023-01-12T16:04:15.446Z,11.89
2023-01-12T16:06:34.879Z,11.90
2023-01-12T16:09:01.554Z,11.81
2023-01-12T16:11:28.166Z,11.69
2023-01-12T16:13:54.825Z,11.66
2023-01-12T16:16:21.571Z,11.63
2023-01-12T16:18:48.313Z,11.64
2023-01-12T16:21:15.870Z,11.63
2023-01-12T16:23:42.619Z,11.63
2023-01-12T16:26:09.908Z,11.67
2023-01-12T16:28:36.670Z,11.66
2023-01-12T16:31:07.368Z,11.60
2023-01-12T16:33:34.151Z,11.46
2023-01-12T16:36:00.849Z,11.57
2023-01-12T16:38:27.892Z,11.52
2023-01-12T16:40:54.511Z,11.57
2023-01-12T16:43:21.736Z,11.59
2023-01-12T16:45:48.415Z,11.58
2023-01-12T16:48:15.081Z,11.51
2023-01-12T16:50:42.188Z,11.54
2023-01-12T16:53:09.338Z,11.49
2023-01-12T16:55:37.967Z,11.46
2023-01-12T16:58:05.243Z,11.48
2023-01-12T17:00:31.931Z,11.36
2023-01-12T17:02:59.112Z,11.30
2023-01-12T17:05:25.792Z,11.40
2023-01-12T17:07:54.295Z,11.41
2023-01-12T17:10:21.709Z,11.43
2023-01-12T17:12:52.997Z,11.36
2023-01-12T17:15:23.036Z,11.28
2023-01-12T17:17:50.200Z,11.14
2023-01-12T17:20:17.154Z,11.25
2023-01-12T17:22:43.944Z,11.25
2023-01-12T17:25:10.915Z,11.23
2023-01-12T17:27:37.784Z,11.30
2023-01-12T17:30:04.902Z,11.35
2023-01-12T17:32:32.735Z,11.36
2023-01-12T17:34:59.504Z,11.22
2023-01-12T17:37:26.105Z,11.21
2023-01-12T17:39:52.815Z,11.16
2023-01-12T17:42:19.485Z,11.21
2023-01-12T17:44:46.108Z,11.24
2023-01-12T17:47:12.778Z,11.21
2023-01-12T17:49:39.503Z,11.26
2023-01-12T17:52:06.226Z,11.17
2023-01-12T17:54:32.952Z,11.16
2023-01-12T17:56:59.693Z,11.18
2023-01-12T17:59:26.427Z,11.27
2023-01-12T18:01:53.321Z,11.18
2023-01-12T18:04:20.053Z,11.00
2023-01-12T18:06:46.662Z,11.06
2023-01-12T18:09:13.424Z,11.14
2023-01-12T18:11:40.070Z,11.10
2023-01-12T18:14:06.992Z,11.12
2023-01-12T18:16:33.801Z,11.17
2023-01-12T18:19:02.383Z,11.16
2023-01-12T18:21:29.072Z,11.20
2023-01-12T18:23:58.439Z,11.16
2023-01-12T18:26:29.582Z,11.11
2023-01-12T18:28:56.560Z,11.16
2023-01-12T18:31:26.544Z,11.17
2023-01-12T18:33:55.660Z,11.13
2023-01-12T18:36:23.658Z,11.14
2023-01-12T18:38:50.781Z,11.18
2023-01-12T18:41:18.324Z,11.10
2023-01-12T18:43:44.976Z,11.27
2023-01-12T18:46:11.685Z,11.24
2023-01-12T18:48:38.537Z,11.28
2023-01-12T18:51:05.244Z,11.22
2023-01-12T18:53:31.863Z,11.15
2023-01-12T18:55:58.838Z,11.12
2023-01-12T18:58:27.109Z,11.06
2023-01-12T19:01:13.723Z,11.15
2023-01-12T19:03:40.655Z,11.23
2023-01-12T19:06:15.298Z,11.09
2023-01-12T19:08:42.099Z,11.09
2023-01-12T19:11:10.281Z,11.28
2023-01-12T19:13:37.445Z,11.19
2023-01-12T19:16:04.362Z,11.32
2023-01-12T19:18:31.050Z,11.40
2023-01-12T19:20:58.103Z,11.45
2023-01-12T19:23:24.763Z,11.43
2023-01-12T19:25:51.399Z,11.34
2023-01-12T19:28:18.128Z,11.46
2023-01-12T19:30:45.276Z,11.35
2023-01-12T19:33:12.426Z,11.29
2023-01-12T19:35:41.080Z,11.22
2023-01-12T19:38:08.638Z,11.15
2023-01-12T19:40:36.814Z,11.14
2023-01-12T19:43:03.638Z,11.16
2023-01-12T19:45:30.309Z,11.18
2023-01-12T19:47:57.001Z,11.15
2023-01-12T19:50:23.669Z,11.14
2023-01-12T19:52:50.336Z,11.09
2023-01-12T19:55:17.010Z,11.07
2023-01-12T19:57:43.732Z,11.05
2023-01-12T20:00:13.041Z,10.96
2023-01-12T20:02:39.889Z,10.97
2023-01-12T20:05:06.650Z,10.98
2023-01-12T20:07:33.292Z,10.92
2023-01-12T20:10:00.061Z,10.95
2023-01-12T20:12:26.795Z,11.01
2023-01-12T20:14:53.450Z,11.08
2023-01-12T20:17:20.363Z,11.12
2023-01-12T20:19:47.324Z,11.12
2023-01-12T20:22:13.939Z,11.03
2023-01-12T20:24:40.571Z,11.20
2023-01-12T20:27:07.246Z,11.17
2023-01-12T20:29:34.094Z,11.20
2023-01-12T20:32:00.797Z,11.24
2023-01-12T20:34:27.490Z,11.20
2023-01-12T20:36:54.141Z,11.15
2023-01-12T20:39:20.837Z,11.05
2023-01-12T20:41:47.511Z,11.10
2023-01-12T20:44:14.935Z,11.10
2023-01-12T20:46:41.630Z,11.06
2023-01-12T20:49:08.314Z,11.14
2023-01-12T20:51:35.095Z,11.06
2023-01-12T20:54:02.280Z,11.11
2023-01-12T20:56:28.949Z,11.13
2023-01-12T20:58:56.641Z,11.00
2023-01-12T21:01:23.422Z,11.06
2023-01-12T21:03:50.171Z,11.10
2023-01-12T21:06:17.177Z,10.99
2023-01-12T21:08:44.463Z,10.93
2023-01-12T21:11:15.409Z,10.92
2023-01-12T21:13:42.106Z,10.87
2023-01-12T21:16:08.904Z,10.99
2023-01-12T21:18:35.630Z,10.81
2023-01-12T21:21:02.943Z,10.99
2023-01-12T21:23:29.659Z,10.94
2023-01-12T21:25:56.306Z,11.02
2023-01-12T21:28:23.151Z,11.11
2023-01-12T21:30:49.880Z,11.09
2023-01-12T21:33:16.632Z,10.98
2023-01-12T21:35:43.293Z,10.95
2023-01-12T21:38:10.039Z,11.04
2023-01-12T21:40:37.168Z,10.96
2023-01-12T21:43:03.807Z,10.94
2023-01-12T21:45:30.458Z,11.01
2023-01-12T21:47:58.400Z,10.92
2023-01-12T21:50:25.059Z,10.89
2023-01-12T21:52:51.688Z,10.85
2023-01-12T21:55:18.436Z,10.95
2023-01-12T21:57:45.154Z,10.99
2023-01-12T22:00:12.226Z,10.92
2023-01-12T22:02:38.885Z,11.02
2023-01-12T22:05:05.692Z,10.90
2023-01-12T22:07:32.353Z,11.02
2023-01-12T22:09:59.049Z,10.90
2023-01-12T22:12:26.884Z,10.89
2023-01-12T22:14:53.575Z,10.87
2023-01-12T22:17:20.248Z,10.78
2023-01-12T22:19:46.853Z,10.66
2023-01-12T22:22:13.550Z,10.60
2023-01-12T22:24:40.178Z,10.47
2023-01-12T22:27:06.772Z,10.33
2023-01-12T22:29:33.493Z,10.27
2023-01-12T22:32:00.306Z,10.20
2023-01-12T22:34:27.028Z,10.13
2023-01-12T22:36:53.641Z,10.15
2023-01-12T22:39:20.274Z,10.21
2023-01-12T22:41:46.905Z,10.27
2023-01-12T22:44:13.594Z,10.27
2023-01-12T22:46:40.283Z,10.25
2023-01-12T22:49:06.891Z,10.31
2023-01-12T22:51:33.622Z,10.33
2023-01-12T22:54:00.258Z,10.34
2023-01-12T22:56:26.861Z,10.43
2023-01-12T22:58:54.340Z,10.40
2023-01-12T23:01:21.495Z,10.40
2023-01-12T23:03:48.236Z,10.42
2023-01-12T23:06:15.640Z,10.36
2023-01-12T23:08:42.828Z,10.42
2023-01-12T23:11:15.350Z,10.38
2023-01-12T23:13:42.605Z,10.60
2023-01-12T23:16:10.065Z,10.68
2023-01-12T23:18:38.774Z,10.72
2023-01-12T23:21:12.242Z,10.79
2023-01-12T23:23:38.889Z,10.67
2023-01-12T23:26:06.311Z,10.78
2023-01-12T23:28:32.963Z,10.76
2023-01-12T23:31:06.429Z,10.81
2023-01-12T23:33:33.208Z,10.75
2023-01-12T23:36:07.929Z,10.73
2023-01-12T23:38:34.781Z,10.77
2023-01-12T23:41:22.431Z,10.84
2023-01-12T23:43:50.019Z,10.88
2023-01-12T23:46:16.835Z,10.93
2023-01-12T23:48:43.584Z,11.02
2023-01-12T23:51:10.218Z,11.07
2023-01-12T23:53:36.911Z,11.02
2023-01-12T23:56:07.959Z,10.99
2023-01-12T23:58:34.634Z,11.04
